sensor_id;sensor_type;location;lat;lon;timestamp;temperature;humidity
48208;DHT22;33997;53.278;9.708;2022-11-20T00:01:39;-3275.20;98.90
48208;DHT22;33997;53.278;9.708;2022-11-20T00:04:04;-3275.20;99.10
48208;DHT22;33997;53.278;9.708;2022-11-20T00:06:30;-3275.20;99.00
48208;DHT22;33997;53.278;9.708;2022-11-20T00:08:57;-3275.20;99.00
48208;DHT22;33997;53.278;9.708;2022-11-20T00:11:25;-3275.30;99.00
48208;DHT22;33997;53.278;9.708;2022-11-20T00:13:54;-3275.20;98.90
48208;DHT22;33997;53.278;9.708;2022-11-20T00:16:22;-3275.20;98.90
48208;DHT22;33997;53.278;9.708;2022-11-20T00:18:48;-3275.20;98.90
48208;DHT22;33997;53.278;9.708;2022-11-20T00:21:16;-3275.20;98.90
48208;DHT22;33997;53.278;9.708;2022-11-20T00:23:42;-3275.20;99.00
48208;DHT22;33997;53.278;9.708;2022-11-20T00:26:11;-3275.20;99.00
48208;DHT22;33997;53.278;9.708;2022-11-20T00:28:38;-3275.30;99.00
48208;DHT22;33997;53.278;9.708;2022-11-20T00:31:06;-3275.30;99.00
48208;DHT22;33997;53.278;9.708;2022-11-20T00:33:33;-3275.30;99.00
48208;DHT22;33997;53.278;9.708;2022-11-20T00:36:04;-3275.40;99.10
48208;DHT22;33997;53.278;9.708;2022-11-20T00:38:31;-3275.30;99.00
48208;DHT22;33997;53.278;9.708;2022-11-20T00:41:02;-3275.40;99.00
48208;DHT22;33997;53.278;9.708;2022-11-20T00:43:28;-3275.40;99.10
48208;DHT22;33997;53.278;9.708;2022-11-20T00:46:04;-3275.50;99.10
48208;DHT22;33997;53.278;9.708;2022-11-20T00:48:30;-3275.50;99.00
48208;DHT22;33997;53.278;9.708;2022-11-20T00:50:56;-3275.50;99.10
48208;DHT22;33997;53.278;9.708;2022-11-20T00:53:21;-3275.50;99.10
48208;DHT22;33997;53.278;9.708;2022-11-20T00:58:23;-3275.60;99.00
48208;DHT22;33997;53.278;9.708;2022-11-20T01:00:49;-3275.60;99.00
48208;DHT22;33997;53.278;9.708;2022-11-20T01:03:16;-3275.60;99.00
48208;DHT22;33997;53.278;9.708;2022-11-20T01:05:41;-3275.60;99.00
48208;DHT22;33997;53.278;9.708;2022-11-20T01:08:07;-3275.60;99.00
48208;DHT22;33997;53.278;9.708;2022-11-20T01:10:33;-3275.60;99.00
48208;DHT22;33997;53.278;9.708;2022-11-20T01:12:58;-3275.60;98.90
48208;DHT22;33997;53.278;9.708;2022-11-20T01:15:42;-3275.60;99.00
48208;DHT22;33997;53.278;9.708;2022-11-20T01:18:08;-3275.60;99.00
48208;DHT22;33997;53.278;9.708;2022-11-20T01:20:36;-3275.50;98.80
48208;DHT22;33997;53.278;9.708;2022-11-20T01:23:05;-3275.40;98.80
48208;DHT22;33997;53.278;9.708;2022-11-20T01:25:30;-3275.40;98.90
48208;DHT22;33997;53.278;9.708;2022-11-20T01:27:56;-3275.40;98.90
48208;DHT22;33997;53.278;9.708;2022-11-20T01:30:21;-3275.30;98.80
48208;DHT22;33997;53.278;9.708;2022-11-20T01:32:47;-3275.30;99.00
48208;DHT22;33997;53.278;9.708;2022-11-20T01:35:12;-3275.30;99.00
48208;DHT22;33997;53.278;9.708;2022-11-20T01:37:38;-3275.30;99.00
48208;DHT22;33997;53.278;9.708;2022-11-20T01:40:04;-3275.40;99.00
48208;DHT22;33997;53.278;9.708;2022-11-20T01:42:29;-3275.40;99.00
48208;DHT22;33997;53.278;9.708;2022-11-20T01:48:14;-3275.50;99.10
48208;DHT22;33997;53.278;9.708;2022-11-20T01:50:40;-3275.50;99.10
48208;DHT22;33997;53.278;9.708;2022-11-20T01:53:10;-3275.60;99.10
48208;DHT22;33997;53.278;9.708;2022-11-20T01:55:46;-3275.60;99.00
48208;DHT22;33997;53.278;9.708;2022-11-20T01:58:13;-3275.60;99.00
48208;DHT22;33997;53.278;9.708;2022-11-20T02:00:39;-3275.60;99.00
48208;DHT22;33997;53.278;9.708;2022-11-20T02:03:08;-3275.60;98.90
48208;DHT22;33997;53.278;9.708;2022-11-20T02:05:39;-3275.60;98.90
48208;DHT22;33997;53.278;9.708;2022-11-20T02:08:07;-3275.60;98.90
48208;DHT22;33997;53.278;9.708;2022-11-20T02:10:33;-3275.60;98.90
48208;DHT22;33997;53.278;9.708;2022-11-20T02:12:58;-3275.60;99.00
48208;DHT22;33997;53.278;9.708;2022-11-20T02:15:44;-3275.60;99.00
48208;DHT22;33997;53.278;9.708;2022-11-20T02:18:11;-3275.60;98.90
48208;DHT22;33997;53.278;9.708;2022-11-20T02:20:40;-3275.60;99.00
48208;DHT22;33997;53.278;9.708;2022-11-20T02:23:08;-3275.60;99.00
48208;DHT22;33997;53.278;9.708;2022-11-20T02:25:36;-3275.60;99.00
48208;DHT22;33997;53.278;9.708;2022-11-20T02:28:03;-3275.60;98.90
48208;DHT22;33997;53.278;9.708;2022-11-20T02:30:28;-3275.60;99.00
48208;DHT22;33997;53.278;9.708;2022-11-20T02:32:54;-3275.70;99.00
48208;DHT22;33997;53.278;9.708;2022-11-20T02:37:47;-3275.70;98.90
48208;DHT22;33997;53.278;9.708;2022-11-20T02:40:13;-3275.70;98.90
48208;DHT22;33997;53.278;9.708;2022-11-20T02:42:39;-3275.70;98.90
48208;DHT22;33997;53.278;9.708;2022-11-20T02:45:05;-3275.70;99.00
48208;DHT22;33997;53.278;9.708;2022-11-20T02:47:31;-3275.70;99.00
48208;DHT22;33997;53.278;9.708;2022-11-20T02:49:56;-3275.70;99.00
48208;DHT22;33997;53.278;9.708;2022-11-20T02:52:23;-3275.70;99.00
48208;DHT22;33997;53.278;9.708;2022-11-20T02:54:48;-3275.70;98.90
48208;DHT22;33997;53.278;9.708;2022-11-20T02:57:14;-3275.70;99.00
48208;DHT22;33997;53.278;9.708;2022-11-20T02:59:39;-3275.70;99.00
48208;DHT22;33997;53.278;9.708;2022-11-20T03:02:05;-3275.70;98.90
48208;DHT22;33997;53.278;9.708;2022-11-20T03:04:30;-3275.70;98.90
48208;DHT22;33997;53.278;9.708;2022-11-20T03:06:56;-3275.80;99.00
48208;DHT22;33997;53.278;9.708;2022-11-20T03:09:21;-3275.80;99.00
48208;DHT22;33997;53.278;9.708;2022-11-20T03:11:47;-3275.80;99.00
48208;DHT22;33997;53.278;9.708;2022-11-20T03:14:12;-3275.80;99.00
48208;DHT22;33997;53.278;9.708;2022-11-20T03:16:38;-3275.90;99.00
48208;DHT22;33997;53.278;9.708;2022-11-20T03:19:03;-3275.90;99.00
48208;DHT22;33997;53.278;9.708;2022-11-20T03:21:29;-3276.00;99.00
48208;DHT22;33997;53.278;9.708;2022-11-20T03:23:55;-3275.90;99.00
48208;DHT22;33997;53.278;9.708;2022-11-20T03:26:22;-3276.00;99.00
48208;DHT22;33997;53.278;9.708;2022-11-20T03:28:51;-3276.00;99.00
48208;DHT22;33997;53.278;9.708;2022-11-20T03:31:19;-3276.00;99.00
48208;DHT22;33997;53.278;9.708;2022-11-20T03:33:45;-3276.00;99.00
48208;DHT22;33997;53.278;9.708;2022-11-20T03:36:12;-3276.00;99.00
48208;DHT22;33997;53.278;9.708;2022-11-20T03:38:38;-3276.00;99.00
48208;DHT22;33997;53.278;9.708;2022-11-20T03:41:06;-3276.00;99.00
48208;DHT22;33997;53.278;9.708;2022-11-20T03:43:32;-3276.00;99.00
48208;DHT22;33997;53.278;9.708;2022-11-20T03:45:58;-3276.10;99.00
48208;DHT22;33997;53.278;9.708;2022-11-20T03:48:24;-3276.10;99.00
48208;DHT22;33997;53.278;9.708;2022-11-20T03:50:50;-3276.10;99.00
48208;DHT22;33997;53.278;9.708;2022-11-20T03:53:16;-3276.10;99.00
48208;DHT22;33997;53.278;9.708;2022-11-20T03:55:42;-3276.10;98.90
48208;DHT22;33997;53.278;9.708;2022-11-20T03:58:09;-3276.10;99.00
48208;DHT22;33997;53.278;9.708;2022-11-20T04:00:34;-3276.10;99.00
48208;DHT22;33997;53.278;9.708;2022-11-20T04:03:01;-3276.10;99.00
48208;DHT22;33997;53.278;9.708;2022-11-20T04:05:27;-3276.10;99.00
48208;DHT22;33997;53.278;9.708;2022-11-20T04:07:52;-3276.00;99.00
48208;DHT22;33997;53.278;9.708;2022-11-20T04:10:18;-3276.10;99.00
48208;DHT22;33997;53.278;9.708;2022-11-20T04:12:44;-3276.10;99.00
48208;DHT22;33997;53.278;9.708;2022-11-20T04:15:09;-3276.10;99.00
48208;DHT22;33997;53.278;9.708;2022-11-20T04:17:35;-3276.10;99.00
48208;DHT22;33997;53.278;9.708;2022-11-20T04:20:01;-3276.10;99.00
48208;DHT22;33997;53.278;9.708;2022-11-20T04:22:26;-3276.10;99.10
48208;DHT22;33997;53.278;9.708;2022-11-20T04:24:52;-3276.10;99.10
48208;DHT22;33997;53.278;9.708;2022-11-20T04:27:18;-3276.10;99.00
48208;DHT22;33997;53.278;9.708;2022-11-20T04:29:43;-3276.10;99.00
48208;DHT22;33997;53.278;9.708;2022-11-20T04:32:09;-3276.10;99.00
48208;DHT22;33997;53.278;9.708;2022-11-20T04:34:34;-3276.10;99.00
48208;DHT22;33997;53.278;9.708;2022-11-20T04:37:00;-3276.20;99.00
48208;DHT22;33997;53.278;9.708;2022-11-20T04:39:25;-3276.10;99.10
48208;DHT22;33997;53.278;9.708;2022-11-20T04:41:51;-3276.20;99.10
48208;DHT22;33997;53.278;9.708;2022-11-20T04:44:36;-3276.20;99.10
48208;DHT22;33997;53.278;9.708;2022-11-20T04:47:02;-3276.20;99.00
48208;DHT22;33997;53.278;9.708;2022-11-20T04:49:27;-3276.20;99.00
48208;DHT22;33997;53.278;9.708;2022-11-20T04:51:53;-3276.10;99.00
48208;DHT22;33997;53.278;9.708;2022-11-20T04:54:19;-3276.20;99.00
48208;DHT22;33997;53.278;9.708;2022-11-20T04:56:47;-3276.20;99.00
48208;DHT22;33997;53.278;9.708;2022-11-20T04:59:13;-3276.10;99.10
48208;DHT22;33997;53.278;9.708;2022-11-20T05:01:39;-3276.10;99.00
48208;DHT22;33997;53.278;9.708;2022-11-20T05:04:04;-3276.20;99.10
48208;DHT22;33997;53.278;9.708;2022-11-20T05:06:31;-3276.20;99.10
48208;DHT22;33997;53.278;9.708;2022-11-20T05:08:57;-3276.30;99.10
48208;DHT22;33997;53.278;9.708;2022-11-20T05:11:22;-3276.20;99.10
48208;DHT22;33997;53.278;9.708;2022-11-20T05:13:49;-3276.30;99.10
48208;DHT22;33997;53.278;9.708;2022-11-20T05:16:18;-3276.30;99.10
48208;DHT22;33997;53.278;9.708;2022-11-20T05:18:44;-3276.30;99.10
48208;DHT22;33997;53.278;9.708;2022-11-20T05:21:10;-3276.30;99.10
48208;DHT22;33997;53.278;9.708;2022-11-20T05:23:36;-3276.30;99.10
48208;DHT22;33997;53.278;9.708;2022-11-20T05:26:02;-3276.30;99.20
48208;DHT22;33997;53.278;9.708;2022-11-20T05:28:29;-3276.30;99.20
48208;DHT22;33997;53.278;9.708;2022-11-20T05:30:54;-3276.30;99.20
48208;DHT22;33997;53.278;9.708;2022-11-20T05:33:20;-3276.30;99.20
48208;DHT22;33997;53.278;9.708;2022-11-20T05:35:46;-3276.30;99.20
48208;DHT22;33997;53.278;9.708;2022-11-20T05:38:11;-3276.30;99.30
48208;DHT22;33997;53.278;9.708;2022-11-20T05:40:37;-3276.40;99.30
48208;DHT22;33997;53.278;9.708;2022-11-20T05:43:03;-3276.40;99.20
48208;DHT22;33997;53.278;9.708;2022-11-20T05:45:28;-3276.40;99.20
48208;DHT22;33997;53.278;9.708;2022-11-20T05:47:57;-3276.40;99.30
48208;DHT22;33997;53.278;9.708;2022-11-20T05:50:23;-3276.40;99.30
48208;DHT22;33997;53.278;9.708;2022-11-20T05:52:49;-3276.40;99.30
48208;DHT22;33997;53.278;9.708;2022-11-20T05:55:14;-3276.40;99.30
48208;DHT22;33997;53.278;9.708;2022-11-20T05:57:40;-3276.40;99.30
48208;DHT22;33997;53.278;9.708;2022-11-20T06:00:06;-3276.40;99.30
48208;DHT22;33997;53.278;9.708;2022-11-20T06:02:34;-3276.40;99.30
48208;DHT22;33997;53.278;9.708;2022-11-20T06:05:00;-3276.40;99.30
48208;DHT22;33997;53.278;9.708;2022-11-20T06:07:26;-3276.40;99.30
48208;DHT22;33997;53.278;9.708;2022-11-20T06:09:51;-3276.40;99.40
48208;DHT22;33997;53.278;9.708;2022-11-20T06:12:16;-3276.40;99.30
48208;DHT22;33997;53.278;9.708;2022-11-20T06:14:45;-3276.40;99.40
48208;DHT22;33997;53.278;9.708;2022-11-20T06:17:10;-3276.40;99.40
48208;DHT22;33997;53.278;9.708;2022-11-20T06:19:36;-3276.40;99.40
48208;DHT22;33997;53.278;9.708;2022-11-20T06:22:01;-3276.40;99.40
48208;DHT22;33997;53.278;9.708;2022-11-20T06:24:27;-3276.40;99.40
48208;DHT22;33997;53.278;9.708;2022-11-20T06:26:52;-3276.40;99.40
48208;DHT22;33997;53.278;9.708;2022-11-20T06:29:18;-3276.40;99.40
48208;DHT22;33997;53.278;9.708;2022-11-20T06:31:43;-3276.40;99.40
48208;DHT22;33997;53.278;9.708;2022-11-20T06:34:09;-3276.40;99.40
48208;DHT22;33997;53.278;9.708;2022-11-20T06:36:35;-3276.40;99.40
48208;DHT22;33997;53.278;9.708;2022-11-20T06:39:01;-3276.40;99.40
48208;DHT22;33997;53.278;9.708;2022-11-20T06:41:26;-3276.40;99.40
48208;DHT22;33997;53.278;9.708;2022-11-20T06:43:53;-3276.40;99.40
48208;DHT22;33997;53.278;9.708;2022-11-20T06:46:19;-3276.50;99.50
48208;DHT22;33997;53.278;9.708;2022-11-20T06:48:46;-3276.50;99.50
48208;DHT22;33997;53.278;9.708;2022-11-20T06:51:12;-3276.50;99.50
48208;DHT22;33997;53.278;9.708;2022-11-20T06:53:37;-3276.50;99.50
48208;DHT22;33997;53.278;9.708;2022-11-20T06:56:03;-3276.50;99.40
48208;DHT22;33997;53.278;9.708;2022-11-20T06:58:31;-3276.50;99.50
48208;DHT22;33997;53.278;9.708;2022-11-20T07:01:09;-3276.50;99.50
48208;DHT22;33997;53.278;9.708;2022-11-20T07:03:35;-3276.50;99.50
48208;DHT22;33997;53.278;9.708;2022-11-20T07:06:01;-3276.50;99.40
48208;DHT22;33997;53.278;9.708;2022-11-20T07:08:27;-3276.50;99.50
48208;DHT22;33997;53.278;9.708;2022-11-20T07:10:56;-3276.50;99.50
48208;DHT22;33997;53.278;9.708;2022-11-20T07:13:22;-3276.50;99.50
48208;DHT22;33997;53.278;9.708;2022-11-20T07:15:47;-3276.50;99.50
48208;DHT22;33997;53.278;9.708;2022-11-20T07:18:13;-3276.50;99.50
48208;DHT22;33997;53.278;9.708;2022-11-20T07:20:38;-3276.50;99.50
48208;DHT22;33997;53.278;9.708;2022-11-20T07:23:04;-3276.50;99.40
48208;DHT22;33997;53.278;9.708;2022-11-20T07:25:29;-3276.50;99.40
48208;DHT22;33997;53.278;9.708;2022-11-20T07:27:59;-3276.50;99.40
48208;DHT22;33997;53.278;9.708;2022-11-20T07:30:25;-3276.50;99.40
48208;DHT22;33997;53.278;9.708;2022-11-20T07:32:52;-3276.50;99.50
48208;DHT22;33997;53.278;9.708;2022-11-20T07:35:17;-3276.50;99.40
48208;DHT22;33997;53.278;9.708;2022-11-20T07:37:43;-3276.50;99.40
48208;DHT22;33997;53.278;9.708;2022-11-20T07:40:09;-3276.60;99.40
48208;DHT22;33997;53.278;9.708;2022-11-20T07:42:34;-3276.60;99.40
48208;DHT22;33997;53.278;9.708;2022-11-20T07:45:00;-3276.60;99.40
48208;DHT22;33997;53.278;9.708;2022-11-20T07:47:25;-3276.60;99.50
48208;DHT22;33997;53.278;9.708;2022-11-20T07:49:51;-3276.70;99.40
48208;DHT22;33997;53.278;9.708;2022-11-20T07:52:16;-3276.70;99.40
48208;DHT22;33997;53.278;9.708;2022-11-20T07:54:42;-3276.70;99.40
48208;DHT22;33997;53.278;9.708;2022-11-20T07:57:07;0.00;99.50
48208;DHT22;33997;53.278;9.708;2022-11-20T07:59:32;0.00;99.40
48208;DHT22;33997;53.278;9.708;2022-11-20T08:01:58;0.00;99.40
48208;DHT22;33997;53.278;9.708;2022-11-20T08:04:23;0.00;99.40
48208;DHT22;33997;53.278;9.708;2022-11-20T08:06:49;0.00;99.30
48208;DHT22;33997;53.278;9.708;2022-11-20T08:09:14;0.00;99.30
48208;DHT22;33997;53.278;9.708;2022-11-20T08:11:40;0.00;99.30
48208;DHT22;33997;53.278;9.708;2022-11-20T08:14:24;0.00;99.30
48208;DHT22;33997;53.278;9.708;2022-11-20T08:16:49;0.00;99.20
48208;DHT22;33997;53.278;9.708;2022-11-20T08:19:17;0.00;99.30
48208;DHT22;33997;53.278;9.708;2022-11-20T08:21:44;0.00;99.30
48208;DHT22;33997;53.278;9.708;2022-11-20T08:24:10;0.00;99.20
48208;DHT22;33997;53.278;9.708;2022-11-20T08:26:36;0.00;99.20
48208;DHT22;33997;53.278;9.708;2022-11-20T08:29:03;0.00;99.20
48208;DHT22;33997;53.278;9.708;2022-11-20T08:31:28;0.00;99.10
48208;DHT22;33997;53.278;9.708;2022-11-20T08:33:54;0.10;99.20
48208;DHT22;33997;53.278;9.708;2022-11-20T08:36:20;0.10;99.10
48208;DHT22;33997;53.278;9.708;2022-11-20T08:38:50;0.10;99.10
48208;DHT22;33997;53.278;9.708;2022-11-20T08:41:16;0.10;99.10
48208;DHT22;33997;53.278;9.708;2022-11-20T08:43:58;0.10;99.00
48208;DHT22;33997;53.278;9.708;2022-11-20T08:46:26;0.20;99.10
48208;DHT22;33997;53.278;9.708;2022-11-20T08:48:52;0.20;99.10
48208;DHT22;33997;53.278;9.708;2022-11-20T08:51:19;0.30;99.00
48208;DHT22;33997;53.278;9.708;2022-11-20T08:53:44;0.30;99.10
48208;DHT22;33997;53.278;9.708;2022-11-20T08:56:10;0.40;99.20
48208;DHT22;33997;53.278;9.708;2022-11-20T08:58:37;0.40;99.00
48208;DHT22;33997;53.278;9.708;2022-11-20T09:01:02;0.50;99.00
48208;DHT22;33997;53.278;9.708;2022-11-20T09:03:28;0.40;98.80
48208;DHT22;33997;53.278;9.708;2022-11-20T09:05:58;0.50;98.80
48208;DHT22;33997;53.278;9.708;2022-11-20T09:08:24;0.50;98.70
48208;DHT22;33997;53.278;9.708;2022-11-20T09:10:54;0.50;98.80
48208;DHT22;33997;53.278;9.708;2022-11-20T09:13:21;0.60;98.70
48208;DHT22;33997;53.278;9.708;2022-11-20T09:15:46;0.60;98.70
48208;DHT22;33997;53.278;9.708;2022-11-20T09:18:12;0.50;98.70
48208;DHT22;33997;53.278;9.708;2022-11-20T09:20:38;0.60;98.70
48208;DHT22;33997;53.278;9.708;2022-11-20T09:23:03;0.50;98.50
48208;DHT22;33997;53.278;9.708;2022-11-20T09:25:29;0.50;98.50
48208;DHT22;33997;53.278;9.708;2022-11-20T09:27:58;0.50;98.50
48208;DHT22;33997;53.278;9.708;2022-11-20T09:30:24;0.50;98.50
48208;DHT22;33997;53.278;9.708;2022-11-20T09:32:50;0.50;98.50
48208;DHT22;33997;53.278;9.708;2022-11-20T09:35:16;0.50;98.60
48208;DHT22;33997;53.278;9.708;2022-11-20T09:37:43;0.60;98.60
48208;DHT22;33997;53.278;9.708;2022-11-20T09:40:21;0.70;98.50
48208;DHT22;33997;53.278;9.708;2022-11-20T09:43:10;0.70;98.40
48208;DHT22;33997;53.278;9.708;2022-11-20T09:48:55;0.70;98.40
48208;DHT22;33997;53.278;9.708;2022-11-20T09:51:28;0.70;98.20
48208;DHT22;33997;53.278;9.708;2022-11-20T09:54:20;0.90;98.30
48208;DHT22;33997;53.278;9.708;2022-11-20T09:56:59;0.90;98.10
48208;DHT22;33997;53.278;9.708;2022-11-20T09:59:48;1.10;98.10
48208;DHT22;33997;53.278;9.708;2022-11-20T10:02:35;1.20;98.00
48208;DHT22;33997;53.278;9.708;2022-11-20T10:05:13;1.10;97.80
48208;DHT22;33997;53.278;9.708;2022-11-20T10:10:45;1.00;97.40
48208;DHT22;33997;53.278;9.708;2022-11-20T10:18:36;1.10;97.40
48208;DHT22;33997;53.278;9.708;2022-11-20T10:24:33;1.40;97.30
48208;DHT22;33997;53.278;9.708;2022-11-20T10:27:16;1.40;96.80
48208;DHT22;33997;53.278;9.708;2022-11-20T10:29:58;1.40;96.70
48208;DHT22;33997;53.278;9.708;2022-11-20T10:32:32;1.50;96.60
48208;DHT22;33997;53.278;9.708;2022-11-20T10:37:32;1.70;96.20
48208;DHT22;33997;53.278;9.708;2022-11-20T10:40:17;1.70;96.10
48208;DHT22;33997;53.278;9.708;2022-11-20T10:42:46;2.10;96.20
48208;DHT22;33997;53.278;9.708;2022-11-20T10:50:31;2.40;95.00
48208;DHT22;33997;53.278;9.708;2022-11-20T10:53:04;2.20;94.20
48208;DHT22;33997;53.278;9.708;2022-11-20T10:55:56;2.20;94.30
48208;DHT22;33997;53.278;9.708;2022-11-20T10:58:49;1.90;94.10
48208;DHT22;33997;53.278;9.708;2022-11-20T11:01:20;2.20;94.60
48208;DHT22;33997;53.278;9.708;2022-11-20T11:03:49;2.50;93.20
48208;DHT22;33997;53.278;9.708;2022-11-20T11:06:36;2.90;93.70
48208;DHT22;33997;53.278;9.708;2022-11-20T11:09:10;2.60;92.40
48208;DHT22;33997;53.278;9.708;2022-11-20T11:11:38;2.70;92.50
48208;DHT22;33997;53.278;9.708;2022-11-20T11:14:13;3.00;92.60
48208;DHT22;33997;53.278;9.708;2022-11-20T11:16:56;2.80;91.50
48208;DHT22;33997;53.278;9.708;2022-11-20T11:19:22;3.00;91.70
48208;DHT22;33997;53.278;9.708;2022-11-20T11:21:51;3.20;90.90
48208;DHT22;33997;53.278;9.708;2022-11-20T11:24:21;3.50;90.50
48208;DHT22;33997;53.278;9.708;2022-11-20T11:26:58;3.60;89.90
48208;DHT22;33997;53.278;9.708;2022-11-20T11:29:24;3.80;89.40
48208;DHT22;33997;53.278;9.708;2022-11-20T11:32:06;3.90;88.70
48208;DHT22;33997;53.278;9.708;2022-11-20T11:34:32;3.90;88.00
48208;DHT22;33997;53.278;9.708;2022-11-20T11:36:59;4.00;87.50
48208;DHT22;33997;53.278;9.708;2022-11-20T11:39:27;3.90;87.20
48208;DHT22;33997;53.278;9.708;2022-11-20T11:41:53;3.30;88.30
48208;DHT22;33997;53.278;9.708;2022-11-20T11:44:27;3.50;89.30
48208;DHT22;33997;53.278;9.708;2022-11-20T11:47:26;3.50;89.40
48208;DHT22;33997;53.278;9.708;2022-11-20T11:52:29;3.70;87.50
48208;DHT22;33997;53.278;9.708;2022-11-20T11:55:01;3.70;87.90
48208;DHT22;33997;53.278;9.708;2022-11-20T11:57:48;3.60;87.90
48208;DHT22;33997;53.278;9.708;2022-11-20T12:00:16;3.50;88.00
48208;DHT22;33997;53.278;9.708;2022-11-20T12:02:57;3.40;87.70
48208;DHT22;33997;53.278;9.708;2022-11-20T12:05:40;3.50;88.20
48208;DHT22;33997;53.278;9.708;2022-11-20T12:08:23;3.90;86.90
48208;DHT22;33997;53.278;9.708;2022-11-20T12:13:44;3.80;86.60
48208;DHT22;33997;53.278;9.708;2022-11-20T12:16:14;4.00;86.80
48208;DHT22;33997;53.278;9.708;2022-11-20T12:18:40;4.00;86.40
48208;DHT22;33997;53.278;9.708;2022-11-20T12:21:19;4.20;85.00
48208;DHT22;33997;53.278;9.708;2022-11-20T12:24:06;4.50;84.70
48208;DHT22;33997;53.278;9.708;2022-11-20T12:29:27;4.70;83.00
48208;DHT22;33997;53.278;9.708;2022-11-20T12:38:18;5.90;82.40
48208;DHT22;33997;53.278;9.708;2022-11-20T12:41:40;6.10;81.50
48208;DHT22;33997;53.278;9.708;2022-11-20T12:44:44;6.00;80.50
48208;DHT22;33997;53.278;9.708;2022-11-20T12:53:54;5.80;76.90
48208;DHT22;33997;53.278;9.708;2022-11-20T12:56:38;5.70;78.30
48208;DHT22;33997;53.278;9.708;2022-11-20T13:02:25;5.60;79.90
48208;DHT22;33997;53.278;9.708;2022-11-20T13:05:21;5.30;80.60
48208;DHT22;33997;53.278;9.708;2022-11-20T13:07:51;5.00;80.10
48208;DHT22;33997;53.278;9.708;2022-11-20T13:10:30;4.70;81.80
48208;DHT22;33997;53.278;9.708;2022-11-20T13:13:47;4.40;82.70
48208;DHT22;33997;53.278;9.708;2022-11-20T13:16:00;4.00;83.50
48208;DHT22;33997;53.278;9.708;2022-11-20T13:18:37;3.60;84.40
48208;DHT22;33997;53.278;9.708;2022-11-20T13:21:14;3.40;85.50
48208;DHT22;33997;53.278;9.708;2022-11-20T13:23:39;3.20;85.90
48208;DHT22;33997;53.278;9.708;2022-11-20T13:26:17;3.10;86.30
48208;DHT22;33997;53.278;9.708;2022-11-20T13:28:42;3.10;87.10
48208;DHT22;33997;53.278;9.708;2022-11-20T13:31:24;3.00;87.10
48208;DHT22;33997;53.278;9.708;2022-11-20T13:33:54;3.00;87.10
48208;DHT22;33997;53.278;9.708;2022-11-20T13:36:23;3.00;87.40
48208;DHT22;33997;53.278;9.708;2022-11-20T13:38:52;3.00;87.90
48208;DHT22;33997;53.278;9.708;2022-11-20T13:41:29;3.00;88.10
48208;DHT22;33997;53.278;9.708;2022-11-20T13:44:21;2.90;87.90
48208;DHT22;33997;53.278;9.708;2022-11-20T13:46:48;2.90;88.10
48208;DHT22;33997;53.278;9.708;2022-11-20T13:49:30;2.90;88.10
48208;DHT22;33997;53.278;9.708;2022-11-20T13:54:44;2.90;87.90
48208;DHT22;33997;53.278;9.708;2022-11-20T13:57:44;2.80;87.10
48208;DHT22;33997;53.278;9.708;2022-11-20T14:00:17;2.60;86.60
48208;DHT22;33997;53.278;9.708;2022-11-20T14:02:44;2.60;86.20
48208;DHT22;33997;53.278;9.708;2022-11-20T14:05:20;2.60;86.10
48208;DHT22;33997;53.278;9.708;2022-11-20T14:07:47;2.70;86.70
48208;DHT22;33997;53.278;9.708;2022-11-20T14:10:40;2.70;86.70
48208;DHT22;33997;53.278;9.708;2022-11-20T14:13:19;2.70;86.00
48208;DHT22;33997;53.278;9.708;2022-11-20T14:15:44;2.70;86.60
48208;DHT22;33997;53.278;9.708;2022-11-20T14:18:19;2.70;87.10
48208;DHT22;33997;53.278;9.708;2022-11-20T14:20:45;2.60;87.90
48208;DHT22;33997;53.278;9.708;2022-11-20T14:23:11;2.60;88.60
48208;DHT22;33997;53.278;9.708;2022-11-20T14:25:37;2.60;89.10
48208;DHT22;33997;53.278;9.708;2022-11-20T14:28:11;2.60;89.30
48208;DHT22;33997;53.278;9.708;2022-11-20T14:30:45;2.60;89.40
48208;DHT22;33997;53.278;9.708;2022-11-20T14:33:13;2.50;89.60
48208;DHT22;33997;53.278;9.708;2022-11-20T14:35:50;2.40;89.80
48208;DHT22;33997;53.278;9.708;2022-11-20T14:38:18;2.30;90.10
48208;DHT22;33997;53.278;9.708;2022-11-20T14:40:45;2.10;90.50
48208;DHT22;33997;53.278;9.708;2022-11-20T14:43:25;2.10;90.70
48208;DHT22;33997;53.278;9.708;2022-11-20T14:46:03;2.00;91.10
48208;DHT22;33997;53.278;9.708;2022-11-20T14:48:32;2.00;91.30
48208;DHT22;33997;53.278;9.708;2022-11-20T14:50:59;1.90;91.50
48208;DHT22;33997;53.278;9.708;2022-11-20T14:53:25;2.00;91.60
48208;DHT22;33997;53.278;9.708;2022-11-20T14:55:59;1.90;91.60
48208;DHT22;33997;53.278;9.708;2022-11-20T14:58:30;1.90;91.80
48208;DHT22;33997;53.278;9.708;2022-11-20T15:00:59;1.80;91.80
48208;DHT22;33997;53.278;9.708;2022-11-20T15:03:39;1.80;91.90
48208;DHT22;33997;53.278;9.708;2022-11-20T15:06:06;1.80;92.00
48208;DHT22;33997;53.278;9.708;2022-11-20T15:08:32;1.70;92.00
48208;DHT22;33997;53.278;9.708;2022-11-20T15:10:58;1.60;92.30
48208;DHT22;33997;53.278;9.708;2022-11-20T15:13:29;1.60;92.30
48208;DHT22;33997;53.278;9.708;2022-11-20T15:15:57;1.50;92.30
48208;DHT22;33997;53.278;9.708;2022-11-20T15:18:28;1.30;92.40
48208;DHT22;33997;53.278;9.708;2022-11-20T15:20:55;1.10;92.50
48208;DHT22;33997;53.278;9.708;2022-11-20T15:23:21;1.00;92.80
48208;DHT22;33997;53.278;9.708;2022-11-20T15:25:47;0.90;92.80
48208;DHT22;33997;53.278;9.708;2022-11-20T15:28:58;0.60;92.90
48208;DHT22;33997;53.278;9.708;2022-11-20T15:31:05;0.50;93.50
48208;DHT22;33997;53.278;9.708;2022-11-20T15:33:32;0.50;94.00
48208;DHT22;33997;53.278;9.708;2022-11-20T15:35:58;0.40;94.20
48208;DHT22;33997;53.278;9.708;2022-11-20T15:38:23;0.40;94.40
48208;DHT22;33997;53.278;9.708;2022-11-20T15:40:49;0.40;94.60
48208;DHT22;33997;53.278;9.708;2022-11-20T15:43:14;0.50;95.00
48208;DHT22;33997;53.278;9.708;2022-11-20T15:45:43;0.60;95.10
48208;DHT22;33997;53.278;9.708;2022-11-20T15:48:29;0.60;95.20
48208;DHT22;33997;53.278;9.708;2022-11-20T15:53:40;0.60;95.10
48208;DHT22;33997;53.278;9.708;2022-11-20T15:56:11;0.70;95.20
48208;DHT22;33997;53.278;9.708;2022-11-20T15:58:37;0.70;95.00
48208;DHT22;33997;53.278;9.708;2022-11-20T16:01:02;0.70;95.00
48208;DHT22;33997;53.278;9.708;2022-11-20T16:03:28;0.70;95.00
48208;DHT22;33997;53.278;9.708;2022-11-20T16:05:53;0.60;95.00
48208;DHT22;33997;53.278;9.708;2022-11-20T16:08:18;0.60;95.00
48208;DHT22;33997;53.278;9.708;2022-11-20T16:10:44;0.60;95.00
48208;DHT22;33997;53.278;9.708;2022-11-20T16:13:15;0.60;95.10
48208;DHT22;33997;53.278;9.708;2022-11-20T16:16:02;0.50;95.10
48208;DHT22;33997;53.278;9.708;2022-11-20T16:18:30;0.50;95.10
48208;DHT22;33997;53.278;9.708;2022-11-20T16:20:56;0.50;95.10
48208;DHT22;33997;53.278;9.708;2022-11-20T16:23:22;0.40;95.00
48208;DHT22;33997;53.278;9.708;2022-11-20T16:25:48;0.40;95.20
48208;DHT22;33997;53.278;9.708;2022-11-20T16:28:14;0.40;95.30
48208;DHT22;33997;53.278;9.708;2022-11-20T16:30:39;0.30;95.30